Time;durP1;ratioP1;P1;durP2;ratioP2;P2;SDS_P1;SDS_P2;PMS_P1;PMS_P2;Temp;Humidity;BMP_temperature;BMP_pressure;BME280_temperature;BME280_humidity;BME280_pressure;Samples;Min_cycle;Max_cycle;Signal;HPM_P1;HPM_P2
2022/07/03 00:00:42;;;;;;;2.65;2.20;;;18.80;99.90;;;;;;5035590;28;20412;-49
2022/07/03 00:03:07;;;;;;;3.88;2.42;;;18.70;99.90;;;;;;5035370;28;20041;-49
2022/07/03 00:05:34;;;;;;;5.80;2.75;;;18.70;99.90;;;;;;5035278;28;20117;-50
2022/07/03 00:07:59;;;;;;;4.13;2.67;;;18.60;99.90;;;;;;5035517;28;20056;-50
2022/07/03 00:10:25;;;;;;;3.92;2.80;;;18.60;99.90;;;;;;5035351;28;20046;-51
2022/07/03 00:12:50;;;;;;;3.40;2.50;;;18.60;99.90;;;;;;5035468;28;20038;-50
2022/07/03 00:15:16;;;;;;;6.35;2.55;;;18.50;99.90;;;;;;5035273;28;20049;-49
2022/07/03 00:17:42;;;;;;;4.90;2.92;;;18.50;99.90;;;;;;5034987;28;20041;-49
2022/07/03 00:20:08;;;;;;;2.45;2.25;;;18.50;99.90;;;;;;5035041;28;20048;-49
2022/07/03 00:22:38;;;;;;;3.22;2.55;;;18.50;99.90;;;;;;5035172;28;20041;-50
2022/07/03 00:25:06;;;;;;;4.75;2.50;;;18.50;99.90;;;;;;5035287;28;20060;-49
2022/07/03 00:27:33;;;;;;;3.50;2.40;;;18.50;99.90;;;;;;5034890;28;20415;-49
2022/07/03 00:30:01;;;;;;;5.35;2.33;;;18.50;99.90;;;;;;5034944;28;20067;-51
2022/07/03 00:32:29;;;;;;;4.45;2.22;;;18.40;99.90;;;;;;5034913;28;20045;-50
2022/07/03 00:34:56;;;;;;;3.55;2.45;;;18.40;99.90;;;;;;5034790;28;20049;-50
2022/07/03 00:37:23;;;;;;;4.72;2.67;;;18.40;99.90;;;;;;5034852;28;20049;-48
2022/07/03 00:39:49;;;;;;;3.78;2.70;;;18.40;99.90;;;;;;5034852;28;20119;-48
2022/07/03 00:42:16;;;;;;;3.38;2.80;;;18.40;99.90;;;;;;5034807;28;20040;-48
2022/07/03 00:44:53;;;;;;;4.32;2.78;;;18.40;99.90;;;;;;5034560;28;20042;-49
2022/07/03 00:47:20;;;;;;;4.15;2.78;;;18.40;99.90;;;;;;5034535;28;20041;-48
2022/07/03 00:49:51;;;;;;;5.30;2.75;;;18.40;99.90;;;;;;5034729;28;20049;-50
2022/07/03 00:52:19;;;;;;;3.10;2.80;;;18.30;99.90;;;;;;5034426;28;20053;-49
2022/07/03 00:54:56;;;;;;;5.93;3.25;;;18.30;99.90;;;;;;5034604;28;20033;-49
2022/07/03 00:57:24;;;;;;;3.78;2.95;;;18.30;99.90;;;;;;5034452;28;20431;-52
2022/07/03 00:59:50;;;;;;;3.38;3.08;;;18.20;99.90;;;;;;5034351;28;20482;-48
2022/07/03 01:02:38;;;;;;;3.70;3.38;;;18.20;99.90;;;;;;5034563;28;20053;-49
2022/07/03 01:05:26;;;;;;;3.38;3.05;;;18.10;99.90;;;;;;5033875;28;20408;-49
2022/07/03 01:08:27;;;;;;;5.80;3.20;;;18.00;99.90;;;;;;5034390;28;20053;-50
2022/07/03 01:11:24;;;;;;;3.72;2.80;;;18.00;99.90;;;;;;5034416;28;20116;-48
2022/07/03 01:14:14;;;;;;;2.85;2.55;;;17.90;99.90;;;;;;5029621;28;20049;-49
2022/07/03 01:17:02;;;;;;;4.28;3.25;;;17.90;99.90;;;;;;5034383;28;20041;-49
2022/07/03 01:19:38;;;;;;;;;;;17.80;99.90;;;;;;5034534;28;20053;-49
2022/07/03 01:22:33;;;;;;;3.30;3.00;;;17.70;99.90;;;;;;5033963;28;19984;-49
2022/07/03 01:25:36;;;;;;;7.88;3.55;;;17.70;99.90;;;;;;5034143;28;20064;-51
2022/07/03 01:28:01;;;;;;;3.70;3.40;;;17.60;99.90;;;;;;5033955;28;20128;-51
2022/07/03 01:30:29;;;;;;;5.55;3.53;;;17.60;99.90;;;;;;5033836;28;20076;-49
2022/07/03 01:33:06;;;;;;;4.18;3.75;;;17.50;99.90;;;;;;5033752;28;20389;-49
2022/07/03 01:35:38;;;;;;;5.85;4.03;;;17.40;99.90;;;;;;5033911;28;20058;-48
2022/07/03 01:38:12;;;;;;;6.25;4.00;;;17.40;99.90;;;;;;5033921;28;20353;-49
2022/07/03 01:40:40;;;;;;;4.00;3.40;;;17.30;99.90;;;;;;5033884;28;20180;-49
2022/07/03 01:43:12;;;;;;;4.25;3.30;;;17.30;99.90;;;;;;5033696;28;20116;-49
2022/07/03 01:45:47;;;;;;;5.38;3.90;;;17.20;99.90;;;;;;5033518;28;20041;-51
2022/07/03 01:48:14;;;;;;;5.32;3.45;;;17.20;99.90;;;;;;5033643;28;20053;-50
2022/07/03 01:50:42;;;;;;;4.32;3.65;;;17.10;99.90;;;;;;5077901;22;20494;-55
2022/07/03 01:53:09;;;;;;;4.80;3.40;;;17.10;99.90;;;;;;5063223;28;20053;-54
2022/07/03 01:55:38;;;;;;;;;;;17.00;99.90;;;;;;5063202;28;20514;-55
2022/07/03 01:58:03;;;;;;;4.63;3.08;;;16.90;99.90;;;;;;5074287;28;19920;-56
2022/07/03 02:00:30;;;;;;;3.95;3.22;;;16.90;99.90;;;;;;5059256;28;20051;-54
2022/07/03 02:03:02;;;;;;;6.18;3.38;;;16.80;99.90;;;;;;5053955;28;20045;-52
2022/07/03 02:05:41;;;;;;;3.80;3.33;;;16.80;99.90;;;;;;5053700;28;20037;-53
2022/07/03 02:08:30;;;;;;;5.35;3.35;;;16.70;99.90;;;;;;5060646;28;20051;-54
2022/07/03 02:11:09;;;;;;;5.30;3.83;;;16.70;99.90;;;;;;5073715;28;20438;-54
2022/07/03 02:13:42;;;;;;;4.20;3.55;;;16.60;99.90;;;;;;5073653;28;20465;-54
2022/07/03 02:16:09;;;;;;;5.53;3.55;;;16.60;99.90;;;;;;5073621;28;20071;-53
2022/07/03 02:18:35;;;;;;;;;;;16.50;99.90;;;;;;5073066;28;20052;-53
2022/07/03 02:21:12;;;;;;;3.70;3.38;;;16.40;99.90;;;;;;5073235;28;20356;-54
2022/07/03 02:23:52;;;;;;;4.05;3.65;;;16.40;99.90;;;;;;5073452;28;20090;-55
2022/07/03 02:26:19;;;;;;;5.63;4.30;;;16.30;99.90;;;;;;5057340;28;20048;-54
2022/07/03 02:29:05;;;;;;;4.17;3.87;;;16.20;99.90;;;;;;5053438;28;20044;-54
2022/07/03 02:31:45;;;;;;;4.28;3.92;;;16.20;99.90;;;;;;5053207;28;20052;-53
2022/07/03 02:34:17;;;;;;;4.85;4.20;;;16.20;99.90;;;;;;5053301;28;20041;-54
2022/07/03 02:36:50;;;;;;;5.15;4.13;;;16.10;99.90;;;;;;5053287;28;20052;-52
2022/07/03 02:39:25;;;;;;;4.30;3.85;;;16.10;99.90;;;;;;5053317;28;20131;-54
2022/07/03 02:42:00;;;;;;;5.88;4.57;;;16.10;99.90;;;;;;5053107;28;20045;-54
2022/07/03 02:44:29;;;;;;;6.32;4.07;;;16.00;99.90;;;;;;5053170;28;20041;-53
2022/07/03 02:47:11;;;;;;;4.10;3.67;;;16.00;99.90;;;;;;5053096;28;20045;-52
2022/07/03 02:50:01;;;;;;;4.82;4.10;;;15.90;99.90;;;;;;5053147;28;20045;-54
2022/07/03 02:52:32;;;;;;;4.70;4.30;;;15.80;99.90;;;;;;5052616;28;20093;-55
2022/07/03 02:55:04;;;;;;;4.45;4.05;;;15.80;99.90;;;;;;5053117;28;20519;-52
2022/07/03 02:57:38;;;;;;;7.47;5.50;;;15.80;99.90;;;;;;5053439;28;20073;-54
2022/07/03 03:00:06;;;;;;;6.15;5.10;;;15.80;99.90;;;;;;5064645;28;20119;-53
2022/07/03 03:02:43;;;;;;;6.18;4.95;;;15.80;99.90;;;;;;5072924;28;20051;-55
2022/07/03 03:05:17;;;;;;;5.43;4.30;;;15.70;99.90;;;;;;5072865;28;20046;-55
2022/07/03 03:08:05;;;;;;;5.03;4.43;;;15.70;99.90;;;;;;5072889;28;20055;-55
2022/07/03 03:10:35;;;;;;;5.05;4.50;;;15.70;99.90;;;;;;5072880;28;20041;-53
2022/07/03 03:13:08;;;;;;;4.97;4.47;;;15.70;99.90;;;;;;5073144;28;20094;-55
2022/07/03 03:15:36;;;;;;;4.70;4.30;;;15.70;99.90;;;;;;5072986;28;20116;-53
2022/07/03 03:18:11;;;;;;;4.13;3.78;;;15.60;99.90;;;;;;5072792;28;20044;-56
2022/07/03 03:20:38;;;;;;;4.55;4.15;;;15.60;99.90;;;;;;5072799;28;20096;-56
2022/07/03 03:23:19;;;;;;;6.50;5.07;;;15.50;99.90;;;;;;5072719;28;20037;-53
2022/07/03 03:25:45;;;;;;;4.50;4.10;;;15.60;99.90;;;;;;5072599;28;20044;-55
2022/07/03 03:28:12;;;;;;;4.57;4.25;;;15.50;99.90;;;;;;5073020;28;20390;-55
2022/07/03 03:30:38;;;;;;;6.18;5.20;;;15.50;99.90;;;;;;5076890;28;20044;-56
2022/07/03 03:33:09;;;;;;;9.88;5.97;;;15.40;99.90;;;;;;5076662;28;20086;-55
2022/07/03 03:35:36;;;;;;;6.82;6.07;;;15.40;99.90;;;;;;5076530;28;20445;-56
2022/07/03 03:38:02;;;;;;;6.60;5.88;;;15.40;99.90;;;;;;5076295;28;20497;-56
2022/07/03 03:40:28;;;;;;;9.55;6.32;;;15.50;99.90;;;;;;5076625;28;20119;-53
2022/07/03 03:42:54;;;;;;;6.28;5.72;;;15.50;99.90;;;;;;5076504;28;20119;-55
2022/07/03 03:45:19;;;;;;;6.70;6.18;;;15.60;99.90;;;;;;5075067;28;20076;-55
2022/07/03 03:47:45;;;;;;;6.57;5.97;;;15.50;99.90;;;;;;5076317;28;20048;-54
2022/07/03 03:50:11;;;;;;;6.40;5.85;;;15.60;99.90;;;;;;5075892;28;20372;-56
2022/07/03 03:52:36;;;;;;;6.03;5.55;;;15.60;99.90;;;;;;5075979;28;20049;-53
2022/07/03 03:55:02;;;;;;;6.20;5.57;;;15.60;99.90;;;;;;5076297;28;20044;-51
2022/07/03 03:57:28;;;;;;;5.97;5.40;;;15.70;99.90;;;;;;5076144;28;20513;-54
2022/07/03 03:59:55;;;;;;;6.30;5.80;;;15.70;99.90;;;;;;5076173;28;20047;-54
2022/07/03 04:02:20;;;;;;;6.78;6.13;;;15.80;99.90;;;;;;5076077;28;20491;-55
2022/07/03 04:04:46;;;;;;;7.28;5.90;;;15.80;99.90;;;;;;5074747;28;20052;-55
2022/07/03 04:07:11;;;;;;;6.07;5.55;;;15.90;99.90;;;;;;5075791;28;20394;-55
2022/07/03 04:09:37;;;;;;;6.55;5.15;;;16.00;99.90;;;;;;5076063;28;20398;-54
2022/07/03 04:12:03;;;;;;;5.80;5.20;;;16.10;99.90;;;;;;5075783;28;20044;-55
2022/07/03 04:14:29;;;;;;;5.53;4.82;;;16.20;99.90;;;;;;5075626;28;20495;-54
2022/07/03 04:16:54;;;;;;;7.07;4.85;;;16.30;99.90;;;;;;5075759;28;20086;-55
2022/07/03 04:19:21;;;;;;;6.00;5.40;;;16.40;99.90;;;;;;5075659;28;20045;-53
2022/07/03 04:21:47;;;;;;;6.38;5.78;;;16.50;99.90;;;;;;5075646;28;20123;-55
2022/07/03 04:24:12;;;;;;;5.65;5.25;;;16.60;99.90;;;;;;5075743;28;20124;-55
2022/07/03 04:26:38;;;;;;;8.20;5.70;;;16.70;99.90;;;;;;5075695;28;20044;-53
2022/07/03 04:29:03;;;;;;;5.90;5.13;;;16.90;99.90;;;;;;5075619;28;20041;-54
2022/07/03 04:31:29;;;;;;;8.93;5.60;;;17.00;99.90;;;;;;5075527;28;20041;-53
2022/07/03 04:33:54;;;;;;;6.10;5.50;;;17.20;99.90;;;;;;5075346;28;20054;-54
2022/07/03 04:36:20;;;;;;;6.38;5.80;;;17.30;99.90;;;;;;5075201;28;20121;-54
2022/07/03 04:38:45;;;;;;;5.65;5.25;;;17.40;99.90;;;;;;5075500;28;20612;-55
2022/07/03 04:41:11;;;;;;;5.82;5.43;;;17.90;99.90;;;;;;5074514;28;20112;-56
2022/07/03 04:43:37;;;;;;;5.25;4.78;;;17.80;99.90;;;;;;5075332;28;20052;-54
2022/07/03 04:46:03;;;;;;;5.35;4.85;;;18.00;99.90;;;;;;5075247;28;20087;-56
2022/07/03 04:48:31;;;;;;;7.10;5.20;;;18.00;99.90;;;;;;5073928;28;20045;-56
2022/07/03 04:50:58;;;;;;;5.43;4.90;;;18.10;99.90;;;;;;5074750;28;20049;-56
2022/07/03 04:53:23;;;;;;;7.78;5.20;;;18.60;99.90;;;;;;5075230;28;20425;-55
2022/07/03 04:55:49;;;;;;;7.25;4.45;;;18.70;99.90;;;;;;5075267;28;20055;-56
2022/07/03 04:58:15;;;;;;;6.95;5.15;;;18.60;99.90;;;;;;5075144;28;20040;-56
2022/07/03 05:00:43;;;;;;;5.78;5.00;;;18.50;99.90;;;;;;5074923;28;20047;-55
2022/07/03 05:03:08;;;;;;;7.65;5.00;;;18.30;99.90;;;;;;5074872;28;20072;-54
2022/07/03 05:05:34;;;;;;;11.65;4.97;;;18.20;99.90;;;;;;5074691;28;20129;-56
2022/07/03 05:08:00;;;;;;;6.55;4.40;;;18.00;99.90;;;;;;5074927;28;20045;-55
2022/07/03 05:10:26;;;;;;;5.68;5.13;;;18.10;99.90;;;;;;5074878;28;20055;-55
2022/07/03 05:12:51;;;;;;;5.10;4.70;;;17.80;99.90;;;;;;5074560;28;20433;-55
2022/07/03 05:15:17;;;;;;;6.18;4.72;;;17.60;99.90;;;;;;5074668;28;20070;-55
2022/07/03 05:17:43;;;;;;;5.53;5.13;;;17.80;99.90;;;;;;5074688;28;20047;-55
2022/07/03 05:20:25;;;;;;;5.40;4.90;;;17.80;99.90;;;;;;5074597;28;20036;-53
2022/07/03 05:23:01;;;;;;;5.60;5.10;;;;;;;;;;5074755;28;20055;-54
2022/07/03 05:25:28;;;;;;;8.77;5.22;;;17.80;99.90;;;;;;5074487;28;20076;-55
2022/07/03 05:27:54;;;;;;;5.72;5.22;;;18.50;99.90;;;;;;5074453;28;20053;-55
2022/07/03 05:30:21;;;;;;;5.35;4.85;;;20.20;99.90;;;;;;5074291;28;20040;-54
2022/07/03 05:32:47;;;;;;;6.38;4.78;;;20.20;99.90;;;;;;5074230;28;20053;-56
2022/07/03 05:35:13;;;;;;;6.45;4.78;;;20.60;99.90;;;;;;5074455;28;20379;-56
2022/07/03 05:37:38;;;;;;;4.85;4.40;;;20.70;99.90;;;;;;5073094;28;20395;-56
2022/07/03 05:40:05;;;;;;;5.60;4.80;;;20.70;99.90;;;;;;5074353;28;20080;-57
2022/07/03 05:42:31;;;;;;;4.57;4.18;;;21.90;99.90;;;;;;5074474;28;20051;-55
2022/07/03 05:44:56;;;;;;;5.05;4.45;;;23.40;99.90;;;;;;5073852;28;20040;-56
2022/07/03 05:47:22;;;;;;;6.80;4.00;;;24.10;99.90;;;;;;5073908;28;20037;-57
2022/07/03 05:49:48;;;;;;;4.30;3.65;;;25.20;99.90;;;;;;5074178;28;20080;-57
2022/07/03 05:52:13;;;;;;;4.10;3.58;;;26.00;99.90;;;;;;5073851;28;20253;-57
2022/07/03 05:54:39;;;;;;;7.60;4.22;;;26.90;99.90;;;;;;5073938;28;20041;-55
2022/07/03 05:57:05;;;;;;;3.25;3.05;;;27.30;99.90;;;;;;5073878;28;20043;-55
2022/07/03 05:59:31;;;;;;;3.15;2.83;;;28.00;99.90;;;;;;5074288;28;20047;-55
2022/07/03 06:01:56;;;;;;;3.90;2.70;;;28.50;99.80;;;;;;5073638;28;20426;-54
2022/07/03 06:04:22;;;;;;;2.92;2.40;;;29.00;97.50;;;;;;5073686;28;20045;-55
2022/07/03 06:06:47;;;;;;;2.42;2.20;;;29.10;97.30;;;;;;5073816;28;20041;-55
2022/07/03 06:09:13;;;;;;;5.15;2.35;;;29.50;96.30;;;;;;5073983;28;20036;-56
2022/07/03 06:11:39;;;;;;;3.25;2.50;;;29.80;94.60;;;;;;5073750;28;20485;-55
2022/07/03 06:14:04;;;;;;;2.78;2.42;;;30.00;92.90;;;;;;5073573;28;20576;-54
2022/07/03 06:16:30;;;;;;;2.50;2.30;;;30.30;91.90;;;;;;5073249;28;20036;-55
2022/07/03 06:18:55;;;;;;;4.85;2.20;;;30.30;91.50;;;;;;5073514;28;20044;-55
2022/07/03 06:21:21;;;;;;;2.42;1.90;;;30.60;91.00;;;;;;5073419;28;20077;-55
2022/07/03 06:23:46;;;;;;;2.95;1.80;;;30.50;88.10;;;;;;5073358;28;20044;-56
2022/07/03 06:26:14;;;;;;;3.55;1.90;;;;;;;;;;5073273;28;20044;-56
2022/07/03 06:28:40;;;;;;;5.95;2.00;;;30.90;84.20;;;;;;5073310;28;20142;-56
2022/07/03 06:31:05;;;;;;;2.92;1.80;;;31.10;83.60;;;;;;5073054;28;20041;-54
2022/07/03 06:33:31;;;;;;;2.20;1.70;;;31.10;82.50;;;;;;5073304;28;20045;-56
2022/07/03 06:35:57;;;;;;;3.03;1.80;;;31.20;81.70;;;;;;5073361;28;20399;-55
2022/07/03 06:38:22;;;;;;;4.97;1.85;;;31.30;79.70;;;;;;5073571;28;20044;-55
2022/07/03 06:40:48;;;;;;;5.15;2.55;;;31.40;78.20;;;;;;5073006;28;20116;-55
2022/07/03 06:43:13;;;;;;;3.30;2.00;;;31.30;77.20;;;;;;5073216;28;20071;-55
2022/07/03 06:45:39;;;;;;;2.92;1.70;;;31.20;78.20;;;;;;5072943;28;20044;-54
2022/07/03 06:48:05;;;;;;;4.32;1.63;;;31.20;76.50;;;;;;5073223;28;20044;-55
2022/07/03 06:50:30;;;;;;;1.75;1.65;;;31.40;77.30;;;;;;5072956;28;20043;-55
2022/07/03 06:52:56;;;;;;;4.88;2.05;;;31.30;75.00;;;;;;5073058;28;20044;-55
2022/07/03 06:55:22;;;;;;;3.58;2.13;;;31.30;75.80;;;;;;5071884;28;20040;-55
2022/07/03 06:57:47;;;;;;;4.20;2.10;;;31.20;74.40;;;;;;5072917;28;20538;-55
2022/07/03 07:00:13;;;;;;;3.80;2.25;;;31.30;76.10;;;;;;5073367;28;20044;-55
2022/07/03 07:02:39;;;;;;;5.47;2.33;;;31.20;75.60;;;;;;5072901;28;20053;-54
2022/07/03 07:05:05;;;;;;;5.37;2.13;;;31.30;77.20;;;;;;5072350;28;20039;-54
2022/07/03 07:07:31;;;;;;;2.67;2.03;;;31.30;72.90;;;;;;5072704;28;20051;-55
2022/07/03 07:09:57;;;;;;;2.83;1.97;;;31.10;73.30;;;;;;5072837;28;20048;-55
2022/07/03 07:12:22;;;;;;;2.73;1.90;;;31.20;73.60;;;;;;5072892;28;20040;-56
2022/07/03 07:14:48;;;;;;;2.80;1.93;;;30.80;74.90;;;;;;5072638;28;20119;-55
2022/07/03 07:17:14;;;;;;;2.75;1.90;;;29.80;73.40;;;;;;5072844;28;20040;-55
2022/07/03 07:19:40;;;;;;;3.40;2.13;;;29.30;75.10;;;;;;5072804;28;20040;-55
2022/07/03 07:22:05;;;;;;;3.17;1.90;;;29.10;76.50;;;;;;5072778;28;20051;-56
2022/07/03 07:24:31;;;;;;;3.95;2.10;;;29.50;77.60;;;;;;5072505;28;20131;-56
2022/07/03 07:26:57;;;;;;;3.50;2.00;;;29.80;77.70;;;;;;5072700;28;20115;-56
2022/07/03 07:29:23;;;;;;;2.63;1.73;;;30.30;76.10;;;;;;5072591;28;20175;-56
2022/07/03 07:31:48;;;;;;;2.10;1.60;;;30.60;75.10;;;;;;5072701;28;20055;-56
2022/07/03 07:34:14;;;;;;;3.20;1.90;;;30.60;76.50;;;;;;5072896;28;20379;-56
2022/07/03 07:36:40;;;;;;;2.47;1.90;;;30.40;73.60;;;;;;5072875;28;20043;-56
2022/07/03 07:39:05;;;;;;;2.33;2.05;;;30.60;75.70;;;;;;5072396;28;20040;-56
2022/07/03 07:41:31;;;;;;;3.53;2.00;;;30.50;75.70;;;;;;5072553;28;20044;-56
2022/07/03 07:43:57;;;;;;;4.82;2.05;;;30.30;74.70;;;;;;5072252;28;20045;-55
2022/07/03 07:46:23;;;;;;;4.43;1.90;;;30.20;74.30;;;;;;5072610;28;20041;-56
2022/07/03 07:48:49;;;;;;;2.10;1.75;;;29.60;73.30;;;;;;5072595;28;20044;-56
2022/07/03 07:51:14;;;;;;;3.28;2.05;;;29.10;75.00;;;;;;5072261;28;20151;-56
2022/07/03 07:53:40;;;;;;;2.90;1.95;;;28.70;75.90;;;;;;5072382;28;20049;-56
2022/07/03 07:56:06;;;;;;;2.15;1.83;;;28.30;77.30;;;;;;5072253;28;20040;-56
2022/07/03 07:58:31;;;;;;;3.65;2.40;;;28.00;79.10;;;;;;5072388;28;20040;-56
2022/07/03 08:06:25;;;;;;;6.25;2.28;;;27.20;80.70;;;;;;5072043;28;20418;-56
2022/07/03 08:08:51;;;;;;;4.03;2.65;;;26.90;81.50;;;;;;5072178;28;20463;-56
2022/07/03 08:11:17;;;;;;;5.07;2.30;;;27.00;80.20;;;;;;5071822;28;20041;-57
2022/07/03 08:13:42;;;;;;;3.78;2.15;;;26.80;81.80;;;;;;5071933;28;20036;-57
2022/07/03 08:16:09;;;;;;;3.10;2.25;;;26.70;82.70;;;;;;5073911;28;20044;-56
2022/07/03 08:18:34;;;;;;;3.78;1.90;;;26.50;82.40;;;;;;5075769;28;20154;-57
2022/07/03 08:21:00;;;;;;;3.00;1.58;;;26.40;82.70;;;;;;5075690;28;20123;-57
2022/07/03 08:23:25;;;;;;;2.72;2.03;;;26.40;84.00;;;;;;5075409;28;20044;-57
2022/07/03 08:25:51;;;;;;;5.93;1.90;;;26.40;83.90;;;;;;5075657;28;20044;-57
2022/07/03 08:28:16;;;;;;;2.38;2.10;;;26.30;84.10;;;;;;5075636;28;20123;-57
2022/07/03 08:30:42;;;;;;;2.80;1.75;;;26.20;82.60;;;;;;5075527;28;20036;-57
2022/07/03 08:33:07;;;;;;;3.60;2.00;;;26.20;83.90;;;;;;5075545;28;20079;-56
2022/07/03 08:35:33;;;;;;;2.80;1.88;;;25.80;82.70;;;;;;5074036;28;20070;-56
2022/07/03 08:37:59;;;;;;;3.05;2.00;;;25.90;83.20;;;;;;5075277;28;20036;-56
2022/07/03 08:40:24;;;;;;;4.05;1.90;;;25.90;82.70;;;;;;5075430;28;20040;-55
2022/07/03 08:42:54;;;;;;;4.20;2.30;;;25.80;83.90;;;;;;5075429;28;20045;-56
2022/07/03 08:45:21;;;;;;;2.05;1.83;;;25.80;84.00;;;;;;5075229;28;20043;-56
2022/07/03 08:47:49;;;;;;;1.63;1.48;;;26.00;85.00;;;;;;5075254;28;20467;-55
2022/07/03 08:50:17;;;;;;;2.13;1.60;;;26.00;85.00;;;;;;5074929;28;20053;-56
2022/07/03 08:52:44;;;;;;;2.63;1.73;;;26.00;84.40;;;;;;5075017;28;20045;-56
2022/07/03 08:55:10;;;;;;;4.47;1.60;;;26.00;83.50;;;;;;5075199;28;20482;-55
2022/07/03 08:57:37;;;;;;;2.45;1.45;;;26.00;82.70;;;;;;5075133;28;20036;-57
2022/07/03 09:00:05;;;;;;;3.05;1.30;;;25.90;84.20;;;;;;5075181;28;20106;-55
2022/07/03 09:02:32;;;;;;;3.67;1.70;;;26.00;85.30;;;;;;5074957;28;20123;-56
2022/07/03 09:04:59;;;;;;;4.15;1.50;;;25.90;82.90;;;;;;5074958;28;20083;-55
2022/07/03 09:07:26;;;;;;;3.92;1.80;;;25.60;84.40;;;;;;5074723;28;20040;-56
2022/07/03 09:09:52;;;;;;;3.00;1.73;;;25.60;84.70;;;;;;5074899;28;20044;-55
2022/07/03 09:12:19;;;;;;;2.85;1.90;;;25.50;84.30;;;;;;5074806;28;20048;-56
2022/07/03 09:14:44;;;;;;;3.77;1.90;;;25.50;86.20;;;;;;5074800;28;20044;-56
2022/07/03 09:17:10;;;;;;;5.97;1.77;;;25.70;86.70;;;;;;5074708;28;20040;-56
2022/07/03 09:19:47;;;;;;;3.40;1.83;;;25.90;87.30;;;;;;5074675;28;20440;-56
2022/07/03 09:22:25;;;;;;;2.40;1.60;;;25.90;85.70;;;;;;5074654;28;20098;-53
2022/07/03 09:24:54;;;;;;;2.60;1.40;;;25.50;86.10;;;;;;5074389;28;20036;-56
2022/07/03 09:27:21;;;;;;;4.10;1.35;;;25.30;88.10;;;;;;5074180;28;20040;-56
2022/07/03 09:29:57;;;;;;;4.55;1.70;;;25.00;88.60;;;;;;5074188;28;20487;-53
2022/07/03 09:32:23;;;;;;;2.30;1.20;;;24.70;87.40;;;;;;5073323;28;20124;-54
2022/07/03 09:34:48;;;;;;;2.77;1.43;;;25.00;88.50;;;;;;5073432;28;20044;-55
2022/07/03 09:37:23;;;;;;;2.70;1.10;;;25.30;88.40;;;;;;5073265;28;20102;-53
2022/07/03 09:39:57;;;;;;;3.03;1.20;;;25.50;89.50;;;;;;5073399;28;20095;-54
2022/07/03 09:42:22;;;;;;;2.97;1.30;;;25.30;88.00;;;;;;5073274;28;20044;-54
2022/07/03 09:44:48;;;;;;;3.55;1.20;;;25.50;87.00;;;;;;5072826;28;20041;-55
2022/07/03 09:47:18;;;;;;;2.95;1.50;;;25.50;88.20;;;;;;5073190;28;20090;-54
2022/07/03 09:49:56;;;;;;;4.82;1.35;;;25.50;87.30;;;;;;5073311;28;20048;-54
2022/07/03 09:52:44;;;;;;;3.53;1.15;;;25.80;87.40;;;;;;5073337;28;20098;-55
2022/07/03 09:55:10;;;;;;;5.28;1.45;;;25.50;88.20;;;;;;5073521;28;20101;-54
2022/07/03 09:57:37;;;;;;;2.45;1.00;;;25.70;87.20;;;;;;5073518;28;20490;-55
2022/07/03 10:00:13;;;;;;;;;;;25.80;84.80;;;;;;5073798;28;20506;-54
2022/07/03 10:02:54;;;;;;;4.60;1.40;;;26.10;85.80;;;;;;5073791;28;19916;-54
2022/07/03 10:05:40;;;;;;;1.83;0.85;;;26.30;82.90;;;;;;5073189;28;20046;-55
2022/07/03 10:08:08;;;;;;;3.60;1.00;;;26.40;81.50;;;;;;5073201;28;20052;-54
2022/07/03 10:10:36;;;;;;;3.15;1.10;;;26.40;82.30;;;;;;5073260;28;20079;-55
2022/07/03 10:13:02;;;;;;;2.63;1.00;;;26.50;82.50;;;;;;5073181;28;20124;-55
2022/07/03 10:15:32;;;;;;;2.08;0.90;;;26.50;81.80;;;;;;5072987;28;20380;-54
2022/07/03 10:17:59;;;;;;;0.93;0.60;;;26.40;78.40;;;;;;5072992;28;20044;-54
2022/07/03 10:20:29;;;;;;;;;;;26.40;79.70;;;;;;5073361;28;20076;-55
2022/07/03 10:22:57;;;;;;;1.90;0.77;;;26.40;79.80;;;;;;5073137;28;19920;-55
2022/07/03 10:25:23;;;;;;;2.33;0.90;;;26.40;79.90;;;;;;5072848;28;20428;-55
2022/07/03 10:27:49;;;;;;;1.80;0.82;;;26.50;78.50;;;;;;5072846;28;20079;-54
2022/07/03 10:30:17;;;;;;;1.25;0.70;;;26.60;79.90;;;;;;5072881;28;20090;-55
2022/07/03 10:32:49;;;;;;;2.35;0.57;;;26.30;79.80;;;;;;5072773;28;20082;-55
2022/07/03 10:35:19;;;;;;;2.03;0.70;;;26.00;80.20;;;;;;5072909;28;20147;-55
2022/07/03 10:38:02;;;;;;;2.08;0.60;;;26.00;80.20;;;;;;5072306;28;20048;-55
2022/07/03 10:46:31;;;;;;;2.78;0.70;;;26.70;78.10;;;;;;5072658;28;20052;-54
2022/07/03 10:49:08;;;;;;;1.02;0.63;;;27.00;81.00;;;;;;5072599;28;20044;-55
2022/07/03 10:51:45;;;;;;;3.50;0.63;;;26.80;80.40;;;;;;5072509;28;20059;-55
2022/07/03 10:54:27;;;;;;;2.60;0.73;;;26.40;78.90;;;;;;5072304;28;20053;-55
2022/07/03 10:57:01;;;;;;;1.20;0.60;;;26.20;77.60;;;;;;5072612;28;20119;-54
2022/07/03 10:59:55;;;;;;;2.03;0.68;;;26.20;77.70;;;;;;5072329;28;20047;-55
2022/07/03 11:02:40;;;;;;;1.27;0.70;;;26.10;79.10;;;;;;5072511;28;20036;-53
2022/07/03 11:05:09;;;;;;;2.05;0.65;;;26.20;78.60;;;;;;5072144;28;20124;-55
2022/07/03 11:07:52;;;;;;;2.25;0.70;;;26.50;77.20;;;;;;5072692;28;20040;-55
2022/07/03 11:10:17;;;;;;;1.23;0.70;;;26.40;77.60;;;;;;5072048;28;20120;-54
2022/07/03 11:13:03;;;;;;;1.20;0.70;;;26.70;76.70;;;;;;5072594;28;20090;-55
2022/07/03 11:15:33;;;;;;;0.63;0.52;;;27.20;79.60;;;;;;5072233;28;20132;-55
2022/07/03 11:18:20;;;;;;;1.30;0.70;;;27.00;77.60;;;;;;5072325;28;20494;-54
2022/07/03 11:20:49;;;;;;;1.27;0.60;;;27.00;76.90;;;;;;5072080;28;20036;-55
2022/07/03 11:23:26;;;;;;;0.68;0.60;;;26.80;77.80;;;;;;5072461;28;20547;-54
2022/07/03 11:25:53;;;;;;;1.23;0.70;;;27.20;77.30;;;;;;5072139;28;20044;-54
2022/07/03 11:28:34;;;;;;;;;;;27.00;76.10;;;;;;5072493;28;20189;-56
2022/07/03 11:31:15;;;;;;;1.00;0.70;;;27.40;77.20;;;;;;5070967;28;20378;-55
2022/07/03 11:33:53;;;;;;;1.20;0.57;;;27.60;75.70;;;;;;5072091;28;20048;-56
2022/07/03 11:36:22;;;;;;;2.25;0.90;;;27.80;77.30;;;;;;5072235;28;20052;-56
2022/07/03 11:39:00;;;;;;;0.90;0.50;;;28.00;76.60;;;;;;5072268;28;20052;-57
2022/07/03 11:41:30;;;;;;;1.27;0.63;;;28.10;77.10;;;;;;5072102;28;20052;-56
2022/07/03 11:43:58;;;;;;;1.30;0.73;;;28.20;75.80;;;;;;5072109;28;20072;-56
2022/07/03 11:46:25;;;;;;;1.35;0.63;;;28.10;73.70;;;;;;5072201;28;20039;-56
2022/07/03 11:49:14;;;;;;;2.13;1.00;;;27.80;75.30;;;;;;5072206;28;20511;-56
2022/07/03 11:51:42;;;;;;;1.88;0.73;;;27.80;74.90;;;;;;5075556;28;20499;-54
2022/07/03 11:54:08;;;;;;;1.98;0.70;;;27.10;74.70;;;;;;5075988;28;20114;-56
2022/07/03 11:56:35;;;;;;;1.20;0.70;;;27.10;78.90;;;;;;5075866;28;20449;-56
2022/07/03 11:59:03;;;;;;;3.53;0.90;;;26.70;77.20;;;;;;5075756;28;20059;-55
2022/07/03 12:01:39;;;;;;;1.58;0.60;;;27.20;78.30;;;;;;5075842;28;20058;-55
2022/07/03 12:04:19;;;;;;;2.00;0.60;;;27.10;79.50;;;;;;5076077;28;20036;-56
2022/07/03 12:06:50;;;;;;;1.63;0.60;;;27.30;76.90;;;;;;5075730;28;20119;-56
2022/07/03 12:09:33;;;;;;;2.97;0.80;;;26.90;77.80;;;;;;5075700;28;20041;-56
2022/07/03 12:12:03;;;;;;;1.90;0.82;;;27.10;77.90;;;;;;5075497;28;20043;-55
2022/07/03 12:14:48;;;;;;;1.70;0.90;;;27.30;76.60;;;;;;5075525;28;20045;-57
2022/07/03 12:17:24;;;;;;;2.45;0.88;;;27.20;77.50;;;;;;5075576;28;20044;-56
2022/07/03 12:19:58;;;;;;;1.42;0.70;;;27.40;76.60;;;;;;5075425;28;20051;-56
2022/07/03 12:22:32;;;;;;;1.60;0.70;;;27.60;78.00;;;;;;5075367;28;20063;-56
2022/07/03 12:25:04;;;;;;;1.73;0.90;;;27.10;76.10;;;;;;5075123;28;20052;-56
2022/07/03 12:27:35;;;;;;;1.70;0.73;;;26.90;78.20;;;;;;5075519;28;20046;-55
2022/07/03 12:30:01;;;;;;;2.20;0.70;;;26.70;77.90;;;;;;5075466;28;20051;-56
2022/07/03 12:32:27;;;;;;;1.08;0.60;;;26.30;78.20;;;;;;5075111;28;20122;-56
2022/07/03 12:34:52;;;;;;;1.00;0.70;;;26.00;77.80;;;;;;5075085;28;20510;-56
2022/07/03 12:37:34;;;;;;;0.60;0.50;;;25.90;79.50;;;;;;5074923;28;20041;-55
2022/07/03 12:40:00;;;;;;;1.35;0.70;;;26.30;80.10;;;;;;5075071;28;20045;-55
2022/07/03 12:42:26;;;;;;;0.75;0.60;;;26.50;78.50;;;;;;5074879;28;20502;-56
2022/07/03 12:44:59;;;;;;;1.00;0.70;;;26.80;79.20;;;;;;5074800;28;20548;-55
2022/07/03 12:47:26;;;;;;;0.80;0.60;;;27.20;88.80;;;;;;5074688;28;20418;-56
2022/07/03 12:50:05;;;;;;;1.33;0.77;;;;;;;;;;5074534;28;20051;-56
2022/07/03 12:52:33;;;;;;;1.42;0.70;;;27.60;75.90;;;;;;5074825;28;20495;-56
2022/07/03 12:55:00;;;;;;;1.38;0.70;;;27.60;76.10;;;;;;5074616;28;20052;-54
2022/07/03 13:00:17;;;;;;;1.70;0.60;;;27.40;73.80;;;;;;5074505;28;20052;-56
2022/07/03 13:02:47;;;;;;;0.75;0.50;;;27.10;75.20;;;;;;5073812;28;20432;-56
2022/07/03 13:05:22;;;;;;;1.38;0.82;;;27.00;75.10;;;;;;5074358;28;20040;-56
2022/07/03 13:07:49;;;;;;;0.88;0.50;;;27.40;78.20;;;;;;5072975;28;20093;-54
2022/07/03 13:10:16;;;;;;;1.60;0.70;;;27.60;76.80;;;;;;5074387;28;20490;-56
2022/07/03 13:12:55;;;;;;;3.20;0.90;;;27.70;74.90;;;;;;5074363;28;20047;-56
2022/07/03 13:15:25;;;;;;;2.30;1.00;;;27.60;78.50;;;;;;5074408;28;20072;-56
2022/07/03 13:17:55;;;;;;;1.77;0.80;;;27.50;79.80;;;;;;5074194;28;20406;-54